sensor_id;sensor_type;location;lat;lon;timestamp;P1;durP1;ratioP1;P2;durP2;ratioP2
15317;SDS011;7759;52.528;13.346;2022-10-13T00:00:43;6.97;;;2.57;;
15317;SDS011;7759;52.528;13.346;2022-10-13T00:03:09;7.87;;;2.90;;
15317;SDS011;7759;52.528;13.346;2022-10-13T00:05:38;7.33;;;3.50;;
15317;SDS011;7759;52.528;13.346;2022-10-13T00:08:04;7.93;;;3.10;;
15317;SDS011;7759;52.528;13.346;2022-10-13T00:10:30;9.53;;;2.77;;
15317;SDS011;7759;52.528;13.346;2022-10-13T00:12:56;8.03;;;2.80;;
15317;SDS011;7759;52.528;13.346;2022-10-13T00:15:22;7.30;;;3.40;;
15317;SDS011;7759;52.528;13.346;2022-10-13T00:17:49;9.40;;;3.20;;
15317;SDS011;7759;52.528;13.346;2022-10-13T00:20:15;6.00;;;3.10;;
15317;SDS011;7759;52.528;13.346;2022-10-13T00:22:41;8.23;;;3.33;;
15317;SDS011;7759;52.528;13.346;2022-10-13T00:25:07;7.47;;;3.70;;
15317;SDS011;7759;52.528;13.346;2022-10-13T00:27:33;5.97;;;3.37;;
15317;SDS011;7759;52.528;13.346;2022-10-13T00:29:59;6.57;;;2.80;;
15317;SDS011;7759;52.528;13.346;2022-10-13T00:32:25;5.40;;;2.87;;
15317;SDS011;7759;52.528;13.346;2022-10-13T00:34:51;6.00;;;3.13;;
15317;SDS011;7759;52.528;13.346;2022-10-13T00:37:17;6.73;;;3.37;;
15317;SDS011;7759;52.528;13.346;2022-10-13T00:39:43;6.13;;;2.70;;
15317;SDS011;7759;52.528;13.346;2022-10-13T00:42:10;6.47;;;3.07;;
15317;SDS011;7759;52.528;13.346;2022-10-13T00:47:21;7.57;;;2.87;;
15317;SDS011;7759;52.528;13.346;2022-10-13T00:49:47;6.77;;;3.20;;
15317;SDS011;7759;52.528;13.346;2022-10-13T00:52:13;6.27;;;2.90;;
15317;SDS011;7759;52.528;13.346;2022-10-13T00:54:41;5.97;;;2.80;;
15317;SDS011;7759;52.528;13.346;2022-10-13T00:57:07;5.73;;;3.07;;
15317;SDS011;7759;52.528;13.346;2022-10-13T00:59:33;5.00;;;2.87;;
15317;SDS011;7759;52.528;13.346;2022-10-13T01:02:00;5.67;;;2.97;;
15317;SDS011;7759;52.528;13.346;2022-10-13T01:04:28;9.03;;;3.40;;
15317;SDS011;7759;52.528;13.346;2022-10-13T01:06:55;8.83;;;2.93;;
15317;SDS011;7759;52.528;13.346;2022-10-13T01:09:21;4.90;;;3.10;;
15317;SDS011;7759;52.528;13.346;2022-10-13T01:11:57;6.93;;;3.10;;
15317;SDS011;7759;52.528;13.346;2022-10-13T01:14:31;5.00;;;2.80;;
15317;SDS011;7759;52.528;13.346;2022-10-13T01:19:55;5.47;;;2.77;;
15317;SDS011;7759;52.528;13.346;2022-10-13T01:25:03;4.80;;;2.87;;
15317;SDS011;7759;52.528;13.346;2022-10-13T01:30:09;8.20;;;3.10;;
15317;SDS011;7759;52.528;13.346;2022-10-13T01:32:42;7.00;;;2.93;;
15317;SDS011;7759;52.528;13.346;2022-10-13T01:35:15;5.07;;;2.67;;
15317;SDS011;7759;52.528;13.346;2022-10-13T01:37:47;5.67;;;2.67;;
15317;SDS011;7759;52.528;13.346;2022-10-13T01:40:17;5.77;;;2.93;;
15317;SDS011;7759;52.528;13.346;2022-10-13T01:42:57;4.83;;;2.80;;
15317;SDS011;7759;52.528;13.346;2022-10-13T01:45:28;10.40;;;3.30;;
15317;SDS011;7759;52.528;13.346;2022-10-13T01:47:55;7.40;;;3.03;;
15317;SDS011;7759;52.528;13.346;2022-10-13T01:50:22;10.27;;;3.20;;
15317;SDS011;7759;52.528;13.346;2022-10-13T01:52:48;6.60;;;3.30;;
15317;SDS011;7759;52.528;13.346;2022-10-13T01:55:14;7.97;;;2.87;;
15317;SDS011;7759;52.528;13.346;2022-10-13T01:57:41;8.03;;;2.83;;
15317;SDS011;7759;52.528;13.346;2022-10-13T02:00:08;5.73;;;3.07;;
15317;SDS011;7759;52.528;13.346;2022-10-13T02:02:46;5.70;;;2.70;;
15317;SDS011;7759;52.528;13.346;2022-10-13T02:05:35;6.80;;;3.23;;
15317;SDS011;7759;52.528;13.346;2022-10-13T02:08:07;5.00;;;2.80;;
15317;SDS011;7759;52.528;13.346;2022-10-13T02:10:49;5.90;;;2.63;;
15317;SDS011;7759;52.528;13.346;2022-10-13T02:13:18;6.13;;;3.27;;
15317;SDS011;7759;52.528;13.346;2022-10-13T02:15:46;10.13;;;3.10;;
15317;SDS011;7759;52.528;13.346;2022-10-13T02:18:13;9.70;;;3.00;;
15317;SDS011;7759;52.528;13.346;2022-10-13T02:20:40;6.43;;;2.90;;
15317;SDS011;7759;52.528;13.346;2022-10-13T02:23:09;6.83;;;3.10;;
15317;SDS011;7759;52.528;13.346;2022-10-13T02:25:36;5.87;;;3.07;;
15317;SDS011;7759;52.528;13.346;2022-10-13T02:28:02;5.73;;;3.00;;
15317;SDS011;7759;52.528;13.346;2022-10-13T02:30:29;5.83;;;3.30;;
15317;SDS011;7759;52.528;13.346;2022-10-13T02:32:57;8.33;;;3.30;;
15317;SDS011;7759;52.528;13.346;2022-10-13T02:35:22;5.87;;;3.03;;
15317;SDS011;7759;52.528;13.346;2022-10-13T02:37:48;9.03;;;3.47;;
15317;SDS011;7759;52.528;13.346;2022-10-13T02:40:14;6.17;;;2.83;;
15317;SDS011;7759;52.528;13.346;2022-10-13T02:42:40;9.57;;;2.83;;
15317;SDS011;7759;52.528;13.346;2022-10-13T02:45:09;8.87;;;3.87;;
15317;SDS011;7759;52.528;13.346;2022-10-13T02:47:35;7.00;;;3.33;;
15317;SDS011;7759;52.528;13.346;2022-10-13T02:50:01;7.43;;;3.50;;
15317;SDS011;7759;52.528;13.346;2022-10-13T02:52:27;9.33;;;3.40;;
15317;SDS011;7759;52.528;13.346;2022-10-13T02:54:53;9.03;;;3.40;;
15317;SDS011;7759;52.528;13.346;2022-10-13T02:57:19;6.77;;;3.37;;
15317;SDS011;7759;52.528;13.346;2022-10-13T02:59:45;6.77;;;3.30;;
15317;SDS011;7759;52.528;13.346;2022-10-13T03:02:11;9.57;;;3.40;;
15317;SDS011;7759;52.528;13.346;2022-10-13T03:04:37;7.67;;;3.83;;
15317;SDS011;7759;52.528;13.346;2022-10-13T03:07:03;7.40;;;3.50;;
15317;SDS011;7759;52.528;13.346;2022-10-13T03:09:29;8.43;;;3.50;;
15317;SDS011;7759;52.528;13.346;2022-10-13T03:11:55;5.37;;;3.40;;
15317;SDS011;7759;52.528;13.346;2022-10-13T03:14:21;5.93;;;3.23;;
15317;SDS011;7759;52.528;13.346;2022-10-13T03:16:46;4.57;;;3.10;;
15317;SDS011;7759;52.528;13.346;2022-10-13T03:19:12;7.43;;;3.67;;
15317;SDS011;7759;52.528;13.346;2022-10-13T03:21:38;8.10;;;3.57;;
15317;SDS011;7759;52.528;13.346;2022-10-13T03:24:04;6.23;;;2.97;;
15317;SDS011;7759;52.528;13.346;2022-10-13T03:26:31;8.47;;;3.17;;
15317;SDS011;7759;52.528;13.346;2022-10-13T03:28:57;8.87;;;3.53;;
15317;SDS011;7759;52.528;13.346;2022-10-13T03:31:23;4.87;;;3.20;;
15317;SDS011;7759;52.528;13.346;2022-10-13T03:33:49;6.40;;;3.50;;
15317;SDS011;7759;52.528;13.346;2022-10-13T03:36:15;7.90;;;4.27;;
15317;SDS011;7759;52.528;13.346;2022-10-13T03:38:42;6.60;;;3.30;;
15317;SDS011;7759;52.528;13.346;2022-10-13T03:41:09;6.60;;;3.50;;
15317;SDS011;7759;52.528;13.346;2022-10-13T03:43:35;6.53;;;3.30;;
15317;SDS011;7759;52.528;13.346;2022-10-13T03:46:02;6.23;;;3.63;;
15317;SDS011;7759;52.528;13.346;2022-10-13T03:48:28;8.07;;;3.53;;
15317;SDS011;7759;52.528;13.346;2022-10-13T03:50:54;4.47;;;3.10;;
15317;SDS011;7759;52.528;13.346;2022-10-13T03:53:20;8.93;;;3.87;;
15317;SDS011;7759;52.528;13.346;2022-10-13T03:55:47;10.43;;;3.60;;
15317;SDS011;7759;52.528;13.346;2022-10-13T03:58:13;8.67;;;3.20;;
15317;SDS011;7759;52.528;13.346;2022-10-13T04:00:39;7.80;;;3.80;;
15317;SDS011;7759;52.528;13.346;2022-10-13T04:03:05;6.63;;;3.33;;
15317;SDS011;7759;52.528;13.346;2022-10-13T04:05:32;7.13;;;3.47;;
15317;SDS011;7759;52.528;13.346;2022-10-13T04:07:58;9.07;;;3.37;;
15317;SDS011;7759;52.528;13.346;2022-10-13T04:10:24;6.50;;;3.50;;
15317;SDS011;7759;52.528;13.346;2022-10-13T04:12:50;7.23;;;3.53;;
15317;SDS011;7759;52.528;13.346;2022-10-13T04:15:16;5.73;;;3.23;;
15317;SDS011;7759;52.528;13.346;2022-10-13T04:17:42;5.97;;;3.73;;
15317;SDS011;7759;52.528;13.346;2022-10-13T04:20:08;6.97;;;3.13;;
15317;SDS011;7759;52.528;13.346;2022-10-13T04:22:34;6.13;;;3.40;;
15317;SDS011;7759;52.528;13.346;2022-10-13T04:25:00;7.67;;;3.80;;
15317;SDS011;7759;52.528;13.346;2022-10-13T04:27:26;7.83;;;2.87;;
15317;SDS011;7759;52.528;13.346;2022-10-13T04:29:52;5.67;;;3.10;;
15317;SDS011;7759;52.528;13.346;2022-10-13T04:32:18;7.57;;;3.63;;
15317;SDS011;7759;52.528;13.346;2022-10-13T04:34:43;5.67;;;3.03;;
15317;SDS011;7759;52.528;13.346;2022-10-13T04:37:09;6.23;;;3.00;;
15317;SDS011;7759;52.528;13.346;2022-10-13T04:39:35;7.00;;;3.33;;
15317;SDS011;7759;52.528;13.346;2022-10-13T04:42:01;6.53;;;3.07;;
15317;SDS011;7759;52.528;13.346;2022-10-13T04:44:27;6.83;;;3.73;;
15317;SDS011;7759;52.528;13.346;2022-10-13T04:46:53;7.57;;;3.30;;
15317;SDS011;7759;52.528;13.346;2022-10-13T04:49:19;7.60;;;3.20;;
15317;SDS011;7759;52.528;13.346;2022-10-13T04:51:45;9.93;;;3.30;;
15317;SDS011;7759;52.528;13.346;2022-10-13T04:54:11;6.87;;;3.00;;
15317;SDS011;7759;52.528;13.346;2022-10-13T04:56:37;5.57;;;3.50;;
15317;SDS011;7759;52.528;13.346;2022-10-13T04:59:03;8.33;;;4.07;;
15317;SDS011;7759;52.528;13.346;2022-10-13T05:01:29;9.13;;;3.77;;
15317;SDS011;7759;52.528;13.346;2022-10-13T05:03:57;7.97;;;3.03;;
15317;SDS011;7759;52.528;13.346;2022-10-13T05:06:24;9.17;;;3.23;;
15317;SDS011;7759;52.528;13.346;2022-10-13T05:08:50;6.57;;;3.73;;
15317;SDS011;7759;52.528;13.346;2022-10-13T05:11:16;8.83;;;4.30;;
15317;SDS011;7759;52.528;13.346;2022-10-13T05:13:44;8.93;;;3.73;;
15317;SDS011;7759;52.528;13.346;2022-10-13T05:16:11;7.43;;;3.47;;
15317;SDS011;7759;52.528;13.346;2022-10-13T05:18:37;14.30;;;4.03;;
15317;SDS011;7759;52.528;13.346;2022-10-13T05:21:07;6.63;;;3.80;;
15317;SDS011;7759;52.528;13.346;2022-10-13T05:23:33;6.67;;;3.40;;
15317;SDS011;7759;52.528;13.346;2022-10-13T05:26:03;8.07;;;3.70;;
15317;SDS011;7759;52.528;13.346;2022-10-13T05:28:29;6.03;;;3.63;;
15317;SDS011;7759;52.528;13.346;2022-10-13T05:30:55;7.50;;;3.77;;
15317;SDS011;7759;52.528;13.346;2022-10-13T05:33:21;8.73;;;3.70;;
15317;SDS011;7759;52.528;13.346;2022-10-13T05:35:47;7.67;;;3.70;;
15317;SDS011;7759;52.528;13.346;2022-10-13T05:38:13;7.10;;;3.77;;
15317;SDS011;7759;52.528;13.346;2022-10-13T05:40:38;6.80;;;3.77;;
15317;SDS011;7759;52.528;13.346;2022-10-13T05:43:04;14.17;;;4.03;;
15317;SDS011;7759;52.528;13.346;2022-10-13T05:45:31;6.87;;;3.57;;
15317;SDS011;7759;52.528;13.346;2022-10-13T05:47:57;5.53;;;3.67;;
15317;SDS011;7759;52.528;13.346;2022-10-13T05:50:23;11.77;;;4.23;;
15317;SDS011;7759;52.528;13.346;2022-10-13T05:52:49;7.20;;;4.00;;
15317;SDS011;7759;52.528;13.346;2022-10-13T05:55:15;9.07;;;3.73;;
15317;SDS011;7759;52.528;13.346;2022-10-13T05:57:43;7.47;;;3.97;;
15317;SDS011;7759;52.528;13.346;2022-10-13T06:00:11;6.43;;;3.20;;
15317;SDS011;7759;52.528;13.346;2022-10-13T06:02:49;9.60;;;3.53;;
15317;SDS011;7759;52.528;13.346;2022-10-13T06:05:17;6.93;;;4.03;;
15317;SDS011;7759;52.528;13.346;2022-10-13T06:07:43;8.03;;;3.77;;
15317;SDS011;7759;52.528;13.346;2022-10-13T06:10:09;10.60;;;3.77;;
15317;SDS011;7759;52.528;13.346;2022-10-13T06:12:36;8.63;;;3.37;;
15317;SDS011;7759;52.528;13.346;2022-10-13T06:15:02;9.17;;;4.20;;
15317;SDS011;7759;52.528;13.346;2022-10-13T06:17:28;7.63;;;4.17;;
15317;SDS011;7759;52.528;13.346;2022-10-13T06:19:54;7.83;;;3.93;;
15317;SDS011;7759;52.528;13.346;2022-10-13T06:22:19;9.67;;;3.73;;
15317;SDS011;7759;52.528;13.346;2022-10-13T06:24:45;9.37;;;4.10;;
15317;SDS011;7759;52.528;13.346;2022-10-13T06:27:11;12.33;;;4.70;;
15317;SDS011;7759;52.528;13.346;2022-10-13T06:29:37;7.37;;;4.43;;
15317;SDS011;7759;52.528;13.346;2022-10-13T06:32:03;7.67;;;4.33;;
15317;SDS011;7759;52.528;13.346;2022-10-13T06:34:29;8.97;;;4.93;;
15317;SDS011;7759;52.528;13.346;2022-10-13T06:36:55;6.77;;;4.00;;
15317;SDS011;7759;52.528;13.346;2022-10-13T06:39:22;8.93;;;4.80;;
15317;SDS011;7759;52.528;13.346;2022-10-13T06:41:48;5.60;;;3.73;;
15317;SDS011;7759;52.528;13.346;2022-10-13T06:44:16;6.73;;;4.47;;
15317;SDS011;7759;52.528;13.346;2022-10-13T06:46:42;9.73;;;4.87;;
15317;SDS011;7759;52.528;13.346;2022-10-13T06:49:08;11.37;;;5.60;;
15317;SDS011;7759;52.528;13.346;2022-10-13T06:51:34;7.10;;;4.17;;
15317;SDS011;7759;52.528;13.346;2022-10-13T06:54:00;8.93;;;4.33;;
15317;SDS011;7759;52.528;13.346;2022-10-13T06:56:26;7.57;;;4.73;;
15317;SDS011;7759;52.528;13.346;2022-10-13T06:58:53;9.43;;;4.60;;
15317;SDS011;7759;52.528;13.346;2022-10-13T07:01:19;8.70;;;4.33;;
15317;SDS011;7759;52.528;13.346;2022-10-13T07:03:48;13.03;;;4.93;;
15317;SDS011;7759;52.528;13.346;2022-10-13T07:06:14;9.73;;;5.23;;
15317;SDS011;7759;52.528;13.346;2022-10-13T07:08:40;7.43;;;4.67;;
15317;SDS011;7759;52.528;13.346;2022-10-13T07:11:11;7.47;;;4.60;;
15317;SDS011;7759;52.528;13.346;2022-10-13T07:13:37;11.40;;;4.23;;
15317;SDS011;7759;52.528;13.346;2022-10-13T07:16:03;6.53;;;3.93;;
15317;SDS011;7759;52.528;13.346;2022-10-13T07:18:31;8.53;;;5.10;;
15317;SDS011;7759;52.528;13.346;2022-10-13T07:20:57;9.90;;;4.67;;
15317;SDS011;7759;52.528;13.346;2022-10-13T07:23:24;11.23;;;6.63;;
15317;SDS011;7759;52.528;13.346;2022-10-13T07:25:50;10.73;;;5.27;;
15317;SDS011;7759;52.528;13.346;2022-10-13T07:28:16;11.80;;;5.10;;
15317;SDS011;7759;52.528;13.346;2022-10-13T07:30:42;11.40;;;5.03;;
15317;SDS011;7759;52.528;13.346;2022-10-13T07:33:08;9.80;;;5.63;;
15317;SDS011;7759;52.528;13.346;2022-10-13T07:35:36;8.13;;;5.17;;
15317;SDS011;7759;52.528;13.346;2022-10-13T07:38:02;12.27;;;5.63;;
15317;SDS011;7759;52.528;13.346;2022-10-13T07:40:28;7.75;;;4.13;;
15317;SDS011;7759;52.528;13.346;2022-10-13T07:42:55;10.67;;;5.47;;
15317;SDS011;7759;52.528;13.346;2022-10-13T07:45:20;8.63;;;5.43;;
15317;SDS011;7759;52.528;13.346;2022-10-13T07:47:46;10.17;;;5.77;;
15317;SDS011;7759;52.528;13.346;2022-10-13T07:50:12;16.70;;;6.23;;
15317;SDS011;7759;52.528;13.346;2022-10-13T07:52:38;8.47;;;5.13;;
15317;SDS011;7759;52.528;13.346;2022-10-13T07:55:05;11.43;;;5.70;;
15317;SDS011;7759;52.528;13.346;2022-10-13T07:57:31;9.97;;;5.33;;
15317;SDS011;7759;52.528;13.346;2022-10-13T07:59:57;5.25;;;3.25;;
15317;SDS011;7759;52.528;13.346;2022-10-13T08:02:23;13.17;;;6.20;;
15317;SDS011;7759;52.528;13.346;2022-10-13T08:04:50;12.53;;;5.40;;
15317;SDS011;7759;52.528;13.346;2022-10-13T08:07:15;10.30;;;5.97;;
15317;SDS011;7759;52.528;13.346;2022-10-13T08:09:41;8.80;;;5.17;;
15317;SDS011;7759;52.528;13.346;2022-10-13T08:12:08;7.67;;;5.03;;
15317;SDS011;7759;52.528;13.346;2022-10-13T08:14:34;8.40;;;5.63;;
15317;SDS011;7759;52.528;13.346;2022-10-13T08:16:59;9.97;;;5.57;;
15317;SDS011;7759;52.528;13.346;2022-10-13T08:19:25;9.37;;;5.87;;
15317;SDS011;7759;52.528;13.346;2022-10-13T08:21:52;12.10;;;6.20;;
15317;SDS011;7759;52.528;13.346;2022-10-13T08:24:19;9.93;;;5.30;;
15317;SDS011;7759;52.528;13.346;2022-10-13T08:26:48;11.70;;;6.17;;
15317;SDS011;7759;52.528;13.346;2022-10-13T08:29:15;11.17;;;6.10;;
15317;SDS011;7759;52.528;13.346;2022-10-13T08:31:41;16.97;;;6.33;;
15317;SDS011;7759;52.528;13.346;2022-10-13T08:34:07;9.73;;;6.03;;
15317;SDS011;7759;52.528;13.346;2022-10-13T08:36:33;14.43;;;7.33;;
15317;SDS011;7759;52.528;13.346;2022-10-13T08:38:59;14.47;;;6.80;;
15317;SDS011;7759;52.528;13.346;2022-10-13T08:41:26;11.70;;;6.43;;
15317;SDS011;7759;52.528;13.346;2022-10-13T08:43:55;14.10;;;6.43;;
15317;SDS011;7759;52.528;13.346;2022-10-13T08:46:24;9.13;;;5.67;;
15317;SDS011;7759;52.528;13.346;2022-10-13T08:48:50;10.60;;;5.53;;
15317;SDS011;7759;52.528;13.346;2022-10-13T08:51:16;9.67;;;6.07;;
15317;SDS011;7759;52.528;13.346;2022-10-13T08:53:43;9.13;;;5.07;;
15317;SDS011;7759;52.528;13.346;2022-10-13T08:56:26;11.43;;;6.23;;
15317;SDS011;7759;52.528;13.346;2022-10-13T08:58:54;11.37;;;6.30;;
15317;SDS011;7759;52.528;13.346;2022-10-13T09:01:26;10.10;;;6.20;;
15317;SDS011;7759;52.528;13.346;2022-10-13T09:03:54;8.70;;;5.53;;
15317;SDS011;7759;52.528;13.346;2022-10-13T09:06:24;10.23;;;5.63;;
15317;SDS011;7759;52.528;13.346;2022-10-13T09:08:59;10.77;;;4.73;;
15317;SDS011;7759;52.528;13.346;2022-10-13T09:11:26;12.10;;;5.83;;
15317;SDS011;7759;52.528;13.346;2022-10-13T09:13:53;10.43;;;6.13;;
15317;SDS011;7759;52.528;13.346;2022-10-13T09:16:32;10.83;;;5.93;;
15317;SDS011;7759;52.528;13.346;2022-10-13T09:19:10;7.27;;;4.60;;
15317;SDS011;7759;52.528;13.346;2022-10-13T09:21:37;9.40;;;6.17;;
15317;SDS011;7759;52.528;13.346;2022-10-13T09:24:07;12.10;;;6.17;;
15317;SDS011;7759;52.528;13.346;2022-10-13T09:26:36;10.87;;;6.63;;
15317;SDS011;7759;52.528;13.346;2022-10-13T09:29:09;20.53;;;9.73;;
15317;SDS011;7759;52.528;13.346;2022-10-13T09:31:36;10.20;;;5.93;;
15317;SDS011;7759;52.528;13.346;2022-10-13T09:34:21;12.17;;;6.63;;
15317;SDS011;7759;52.528;13.346;2022-10-13T09:36:54;10.77;;;5.83;;
15317;SDS011;7759;52.528;13.346;2022-10-13T09:39:21;10.87;;;6.40;;
15317;SDS011;7759;52.528;13.346;2022-10-13T09:41:47;11.47;;;6.23;;
15317;SDS011;7759;52.528;13.346;2022-10-13T09:44:17;10.80;;;6.97;;
15317;SDS011;7759;52.528;13.346;2022-10-13T09:46:48;10.37;;;6.30;;
15317;SDS011;7759;52.528;13.346;2022-10-13T09:49:34;12.27;;;6.27;;
15317;SDS011;7759;52.528;13.346;2022-10-13T09:52:03;11.40;;;6.53;;
15317;SDS011;7759;52.528;13.346;2022-10-13T09:57:04;14.43;;;8.07;;
15317;SDS011;7759;52.528;13.346;2022-10-13T09:59:33;15.57;;;8.50;;
15317;SDS011;7759;52.528;13.346;2022-10-13T10:02:01;13.00;;;7.27;;
15317;SDS011;7759;52.528;13.346;2022-10-13T10:04:30;12.47;;;6.77;;
15317;SDS011;7759;52.528;13.346;2022-10-13T10:06:58;14.70;;;7.27;;
15317;SDS011;7759;52.528;13.346;2022-10-13T10:09:27;15.03;;;7.73;;
15317;SDS011;7759;52.528;13.346;2022-10-13T10:11:57;8.90;;;6.57;;
15317;SDS011;7759;52.528;13.346;2022-10-13T10:14:34;12.50;;;6.80;;
15317;SDS011;7759;52.528;13.346;2022-10-13T10:17:03;10.60;;;6.00;;
15317;SDS011;7759;52.528;13.346;2022-10-13T10:24:54;14.23;;;8.27;;
15317;SDS011;7759;52.528;13.346;2022-10-13T10:27:25;15.23;;;7.68;;
15317;SDS011;7759;52.528;13.346;2022-10-13T10:29:55;16.23;;;8.70;;
15317;SDS011;7759;52.528;13.346;2022-10-13T10:34:56;16.85;;;8.00;;
15317;SDS011;7759;52.528;13.346;2022-10-13T10:37:37;16.40;;;7.53;;
15317;SDS011;7759;52.528;13.346;2022-10-13T10:40:14;13.35;;;7.00;;
15317;SDS011;7759;52.528;13.346;2022-10-13T10:43:02;10.23;;;7.00;;
15317;SDS011;7759;52.528;13.346;2022-10-13T10:45:35;13.60;;;7.60;;
15317;SDS011;7759;52.528;13.346;2022-10-13T10:48:18;12.32;;;7.45;;
15317;SDS011;7759;52.528;13.346;2022-10-13T10:50:45;10.18;;;7.25;;
15317;SDS011;7759;52.528;13.346;2022-10-13T10:53:17;13.48;;;6.65;;
15317;SDS011;7759;52.528;13.346;2022-10-13T10:55:48;13.63;;;7.30;;
15317;SDS011;7759;52.528;13.346;2022-10-13T10:58:38;16.33;;;8.32;;
15317;SDS011;7759;52.528;13.346;2022-10-13T11:01:13;14.05;;;7.63;;
15317;SDS011;7759;52.528;13.346;2022-10-13T11:03:45;13.50;;;6.45;;
15317;SDS011;7759;52.528;13.346;2022-10-13T11:08:42;12.70;;;6.32;;
15317;SDS011;7759;52.528;13.346;2022-10-13T11:13:54;11.65;;;6.78;;
15317;SDS011;7759;52.528;13.346;2022-10-13T11:18:59;11.15;;;7.35;;
15317;SDS011;7759;52.528;13.346;2022-10-13T11:27:22;10.43;;;6.35;;
15317;SDS011;7759;52.528;13.346;2022-10-13T11:40:40;9.65;;;5.97;;
15317;SDS011;7759;52.528;13.346;2022-10-13T11:48:59;11.07;;;6.07;;
15317;SDS011;7759;52.528;13.346;2022-10-13T11:51:36;6.40;;;4.18;;
15317;SDS011;7759;52.528;13.346;2022-10-13T11:56:54;10.40;;;4.93;;
15317;SDS011;7759;52.528;13.346;2022-10-13T12:04:30;8.57;;;5.15;;
15317;SDS011;7759;52.528;13.346;2022-10-13T12:06:58;8.13;;;5.05;;
15317;SDS011;7759;52.528;13.346;2022-10-13T12:09:25;8.60;;;4.70;;
15317;SDS011;7759;52.528;13.346;2022-10-13T12:11:55;6.07;;;3.65;;
15317;SDS011;7759;52.528;13.346;2022-10-13T12:14:23;9.38;;;4.00;;
15317;SDS011;7759;52.528;13.346;2022-10-13T12:16:51;8.30;;;4.70;;
15317;SDS011;7759;52.528;13.346;2022-10-13T12:19:18;8.05;;;4.38;;
15317;SDS011;7759;52.528;13.346;2022-10-13T12:21:53;7.00;;;3.70;;
15317;SDS011;7759;52.528;13.346;2022-10-13T12:24:26;8.55;;;4.65;;
15317;SDS011;7759;52.528;13.346;2022-10-13T12:26:56;5.22;;;3.45;;
15317;SDS011;7759;52.528;13.346;2022-10-13T12:29:26;8.20;;;3.70;;
15317;SDS011;7759;52.528;13.346;2022-10-13T12:31:52;10.48;;;4.85;;
15317;SDS011;7759;52.528;13.346;2022-10-13T12:34:23;7.10;;;4.82;;
15317;SDS011;7759;52.528;13.346;2022-10-13T12:36:54;10.45;;;4.70;;
15317;SDS011;7759;52.528;13.346;2022-10-13T12:39:20;11.35;;;4.18;;
15317;SDS011;7759;52.528;13.346;2022-10-13T12:41:48;9.35;;;3.50;;
15317;SDS011;7759;52.528;13.346;2022-10-13T12:44:22;8.20;;;3.88;;
15317;SDS011;7759;52.528;13.346;2022-10-13T12:46:52;4.50;;;2.63;;
15317;SDS011;7759;52.528;13.346;2022-10-13T12:49:24;9.15;;;2.95;;
15317;SDS011;7759;52.528;13.346;2022-10-13T12:52:12;4.72;;;3.00;;
15317;SDS011;7759;52.528;13.346;2022-10-13T12:54:45;5.20;;;2.35;;
15317;SDS011;7759;52.528;13.346;2022-10-13T12:57:15;5.53;;;3.50;;
15317;SDS011;7759;52.528;13.346;2022-10-13T12:59:43;6.03;;;3.60;;
15317;SDS011;7759;52.528;13.346;2022-10-13T13:02:19;4.22;;;2.85;;
15317;SDS011;7759;52.528;13.346;2022-10-13T13:04:46;5.22;;;3.40;;
15317;SDS011;7759;52.528;13.346;2022-10-13T13:07:24;4.30;;;2.80;;
15317;SDS011;7759;52.528;13.346;2022-10-13T13:09:58;8.70;;;4.40;;
15317;SDS011;7759;52.528;13.346;2022-10-13T13:12:26;6.60;;;3.90;;
15317;SDS011;7759;52.528;13.346;2022-10-13T13:14:53;7.82;;;3.85;;
15317;SDS011;7759;52.528;13.346;2022-10-13T13:17:21;7.53;;;3.63;;
15317;SDS011;7759;52.528;13.346;2022-10-13T13:19:49;3.97;;;2.63;;
15317;SDS011;7759;52.528;13.346;2022-10-13T13:22:15;6.10;;;3.60;;
15317;SDS011;7759;52.528;13.346;2022-10-13T13:24:42;7.13;;;3.50;;
15317;SDS011;7759;52.528;13.346;2022-10-13T13:27:15;7.20;;;3.70;;
15317;SDS011;7759;52.528;13.346;2022-10-13T13:29:41;6.82;;;3.60;;
15317;SDS011;7759;52.528;13.346;2022-10-13T13:32:16;11.07;;;3.83;;
15317;SDS011;7759;52.528;13.346;2022-10-13T13:34:43;8.00;;;4.10;;
15317;SDS011;7759;52.528;13.346;2022-10-13T13:37:24;5.78;;;2.90;;
15317;SDS011;7759;52.528;13.346;2022-10-13T13:39:51;11.40;;;4.50;;
15317;SDS011;7759;52.528;13.346;2022-10-13T13:42:17;8.05;;;4.18;;
15317;SDS011;7759;52.528;13.346;2022-10-13T13:44:43;7.93;;;4.55;;
15317;SDS011;7759;52.528;13.346;2022-10-13T13:47:19;9.60;;;5.00;;
15317;SDS011;7759;52.528;13.346;2022-10-13T13:49:46;7.82;;;4.35;;
15317;SDS011;7759;52.528;13.346;2022-10-13T13:52:13;9.15;;;5.07;;
15317;SDS011;7759;52.528;13.346;2022-10-13T13:54:42;11.25;;;4.78;;
15317;SDS011;7759;52.528;13.346;2022-10-13T13:57:10;7.70;;;4.97;;
15317;SDS011;7759;52.528;13.346;2022-10-13T13:59:37;7.68;;;4.22;;
15317;SDS011;7759;52.528;13.346;2022-10-13T14:02:04;10.82;;;4.35;;
15317;SDS011;7759;52.528;13.346;2022-10-13T14:04:30;8.63;;;3.95;;
15317;SDS011;7759;52.528;13.346;2022-10-13T14:06:56;7.40;;;4.30;;
15317;SDS011;7759;52.528;13.346;2022-10-13T14:09:22;6.45;;;4.68;;
15317;SDS011;7759;52.528;13.346;2022-10-13T14:11:48;6.75;;;4.03;;
15317;SDS011;7759;52.528;13.346;2022-10-13T14:14:14;6.63;;;2.72;;
15317;SDS011;7759;52.528;13.346;2022-10-13T14:16:40;7.57;;;3.90;;
15317;SDS011;7759;52.528;13.346;2022-10-13T14:19:06;7.35;;;4.20;;
15317;SDS011;7759;52.528;13.346;2022-10-13T14:21:32;7.60;;;4.40;;
15317;SDS011;7759;52.528;13.346;2022-10-13T14:23:58;7.63;;;4.15;;
15317;SDS011;7759;52.528;13.346;2022-10-13T14:26:24;9.60;;;5.68;;
15317;SDS011;7759;52.528;13.346;2022-10-13T14:28:50;7.35;;;4.80;;
15317;SDS011;7759;52.528;13.346;2022-10-13T14:31:16;9.10;;;4.43;;
15317;SDS011;7759;52.528;13.346;2022-10-13T14:33:42;7.18;;;3.83;;
15317;SDS011;7759;52.528;13.346;2022-10-13T14:36:08;9.25;;;5.07;;
15317;SDS011;7759;52.528;13.346;2022-10-13T14:38:34;8.00;;;4.25;;
15317;SDS011;7759;52.528;13.346;2022-10-13T14:41:01;5.75;;;4.22;;
15317;SDS011;7759;52.528;13.346;2022-10-13T14:43:28;10.73;;;4.40;;
15317;SDS011;7759;52.528;13.346;2022-10-13T14:45:55;6.88;;;4.30;;
15317;SDS011;7759;52.528;13.346;2022-10-13T14:48:25;6.78;;;4.03;;
15317;SDS011;7759;52.528;13.346;2022-10-13T14:50:51;6.30;;;4.65;;
15317;SDS011;7759;52.528;13.346;2022-10-13T14:53:17;8.95;;;4.10;;
15317;SDS011;7759;52.528;13.346;2022-10-13T14:55:43;6.85;;;4.35;;
15317;SDS011;7759;52.528;13.346;2022-10-13T14:58:09;9.43;;;4.35;;
15317;SDS011;7759;52.528;13.346;2022-10-13T15:00:36;7.75;;;3.88;;
15317;SDS011;7759;52.528;13.346;2022-10-13T15:03:02;7.28;;;3.90;;
15317;SDS011;7759;52.528;13.346;2022-10-13T15:05:28;5.40;;;3.38;;
15317;SDS011;7759;52.528;13.346;2022-10-13T15:07:54;11.52;;;5.32;;
15317;SDS011;7759;52.528;13.346;2022-10-13T15:10:20;11.93;;;4.40;;
15317;SDS011;7759;52.528;13.346;2022-10-13T15:12:46;7.53;;;3.90;;
15317;SDS011;7759;52.528;13.346;2022-10-13T15:15:12;9.05;;;4.35;;
15317;SDS011;7759;52.528;13.346;2022-10-13T15:17:38;6.88;;;4.07;;
15317;SDS011;7759;52.528;13.346;2022-10-13T15:20:04;6.15;;;4.05;;
15317;SDS011;7759;52.528;13.346;2022-10-13T15:22:30;7.38;;;4.32;;
15317;SDS011;7759;52.528;13.346;2022-10-13T15:24:56;12.02;;;4.57;;
15317;SDS011;7759;52.528;13.346;2022-10-13T15:27:22;5.18;;;4.10;;
15317;SDS011;7759;52.528;13.346;2022-10-13T15:29:48;7.25;;;4.45;;
15317;SDS011;7759;52.528;13.346;2022-10-13T15:32:15;6.88;;;3.75;;
15317;SDS011;7759;52.528;13.346;2022-10-13T15:34:45;6.75;;;4.35;;
15317;SDS011;7759;52.528;13.346;2022-10-13T15:37:11;6.40;;;3.75;;
15317;SDS011;7759;52.528;13.346;2022-10-13T15:39:37;8.73;;;5.10;;
15317;SDS011;7759;52.528;13.346;2022-10-13T15:42:03;7.65;;;5.15;;
15317;SDS011;7759;52.528;13.346;2022-10-13T15:44:29;6.80;;;3.90;;
15317;SDS011;7759;52.528;13.346;2022-10-13T15:46:55;7.95;;;4.78;;